createdAt,value
2023-02-17T00:01:38.934Z,22.20
2023-02-17T00:04:07.149Z,18.60
2023-02-17T00:06:35.452Z,20.30
2023-02-17T00:09:07.806Z,17.30
2023-02-17T00:11:35.998Z,22.80
2023-02-17T00:14:04.233Z,17.50
2023-02-17T00:16:32.414Z,21.90
2023-02-17T00:19:01.913Z,22.20
2023-02-17T00:21:32.341Z,22.90
2023-02-17T00:24:00.980Z,28.00
2023-02-17T00:26:29.844Z,29.40
2023-02-17T00:28:59.326Z,22.80
2023-02-17T00:31:27.786Z,25.10
2023-02-17T00:33:56.655Z,24.20
2023-02-17T00:36:26.776Z,24.80
2023-02-17T00:38:58.087Z,18.30
2023-02-17T00:41:29.307Z,18.60
2023-02-17T00:43:59.699Z,21.10
2023-02-17T00:46:27.970Z,22.80
2023-02-17T00:48:57.447Z,19.40
2023-02-17T00:51:26.363Z,19.90
2023-02-17T00:53:54.950Z,18.20
2023-02-17T00:56:23.092Z,18.80
2023-02-17T00:58:51.373Z,31.50
2023-02-17T01:01:19.740Z,28.80
2023-02-17T01:03:48.002Z,17.80
2023-02-17T01:06:25.684Z,21.80
2023-02-17T01:08:54.586Z,21.20
2023-02-17T01:11:27.458Z,18.40
2023-02-17T01:13:57.116Z,27.20
2023-02-17T01:16:28.708Z,14.80
2023-02-17T01:19:00.268Z,21.10
2023-02-17T01:21:30.834Z,22.30
2023-02-17T01:24:01.494Z,23.10
2023-02-17T01:26:32.303Z,22.20
2023-02-17T01:29:05.053Z,25.20
2023-02-17T01:31:33.978Z,22.60
2023-02-17T01:34:04.619Z,23.70
2023-02-17T01:36:33.116Z,16.30
2023-02-17T01:39:01.316Z,30.40
2023-02-17T01:41:29.733Z,25.90
2023-02-17T01:44:21.898Z,20.20
2023-02-17T01:46:55.355Z,27.90
2023-02-17T01:49:37.284Z,24.20
2023-02-17T01:52:11.713Z,19.60
2023-02-17T01:54:55.835Z,26.20
2023-02-17T01:57:27.617Z,24.10
2023-02-17T01:59:57.868Z,27.80
2023-02-17T02:02:30.295Z,24.40
2023-02-17T02:05:00.504Z,28.10
2023-02-17T02:07:41.088Z,28.50
2023-02-17T02:10:12.127Z,21.90
2023-02-17T02:12:42.526Z,28.60
2023-02-17T02:15:17.375Z,22.70
2023-02-17T02:18:14.480Z,23.40
2023-02-17T02:21:03.565Z,23.40
2023-02-17T02:23:56.789Z,22.80
2023-02-17T02:27:18.547Z,19.80
2023-02-17T02:30:10.002Z,22.10
2023-02-17T02:32:48.775Z,23.10
2023-02-17T02:35:52.522Z,24.00
2023-02-17T02:38:36.496Z,21.00
2023-02-17T02:41:27.524Z,17.20
2023-02-17T02:43:56.106Z,26.40
2023-02-17T02:46:24.575Z,21.40
2023-02-17T02:48:54.059Z,22.30
2023-02-17T02:51:52.489Z,22.10
2023-02-17T02:54:52.920Z,20.00
2023-02-17T02:57:23.916Z,21.40
2023-02-17T03:00:16.237Z,26.00
2023-02-17T03:02:53.488Z,18.90
2023-02-17T03:05:44.797Z,24.20
2023-02-17T03:08:20.245Z,19.50
2023-02-17T03:10:53.697Z,20.90
2023-02-17T03:13:22.084Z,21.60
2023-02-17T03:15:50.411Z,19.90
2023-02-17T03:18:21.159Z,22.90
2023-02-17T03:20:56.722Z,22.00
2023-02-17T03:23:27.235Z,16.90
2023-02-17T03:25:55.634Z,22.00
2023-02-17T03:28:25.038Z,24.60
2023-02-17T03:30:54.132Z,24.40
2023-02-17T03:33:22.913Z,24.40
2023-02-17T03:35:53.701Z,20.50
2023-02-17T03:38:21.881Z,24.30
2023-02-17T03:40:50.075Z,19.90
2023-02-17T03:43:18.262Z,24.90
2023-02-17T03:45:46.502Z,21.50
2023-02-17T03:48:14.737Z,22.90
2023-02-17T03:50:43.747Z,27.70
2023-02-17T03:53:12.474Z,24.30
2023-02-17T03:55:40.695Z,24.80
2023-02-17T03:58:09.405Z,26.30
2023-02-17T04:00:37.677Z,17.20
2023-02-17T04:03:05.966Z,27.50
2023-02-17T04:05:35.282Z,19.70
2023-02-17T04:08:03.827Z,27.00
2023-02-17T04:10:32.038Z,22.40
2023-02-17T04:13:00.282Z,25.20
2023-02-17T04:15:30.062Z,28.90
2023-02-17T04:17:58.772Z,21.50
2023-02-17T04:20:27.075Z,25.20
2023-02-17T04:22:55.355Z,28.40
2023-02-17T04:25:23.605Z,27.20
2023-02-17T04:27:51.930Z,21.80
2023-02-17T04:30:20.377Z,28.20
2023-02-17T04:32:49.205Z,31.60
2023-02-17T04:35:17.443Z,27.60
2023-02-17T04:37:45.686Z,20.10
2023-02-17T04:40:14.242Z,33.30
2023-02-17T04:42:42.465Z,26.60
2023-02-17T04:45:12.068Z,26.30
2023-02-17T04:47:40.963Z,31.70
2023-02-17T04:50:10.392Z,27.30
2023-02-17T04:52:39.088Z,23.10
2023-02-17T04:55:08.222Z,29.10
2023-02-17T04:57:37.726Z,30.40
2023-02-17T05:00:07.706Z,29.50
2023-02-17T05:02:36.309Z,28.60
2023-02-17T05:05:05.024Z,31.50
2023-02-17T05:07:33.520Z,32.10
2023-02-17T05:10:01.831Z,32.10
2023-02-17T05:12:32.039Z,27.20
2023-02-17T05:15:00.201Z,32.50
2023-02-17T05:17:30.508Z,29.80
2023-02-17T05:20:00.351Z,25.60
2023-02-17T05:22:28.553Z,32.90
2023-02-17T05:24:56.942Z,26.70
2023-02-17T05:27:25.412Z,33.60
2023-02-17T05:29:53.731Z,35.10
2023-02-17T05:32:24.743Z,31.50
2023-02-17T05:34:53.050Z,33.00
2023-02-17T05:37:21.323Z,35.00
2023-02-17T05:39:50.912Z,31.40
2023-02-17T05:42:19.122Z,44.90
2023-02-17T05:44:47.317Z,25.60
2023-02-17T05:47:15.588Z,34.10
2023-02-17T05:49:43.815Z,35.90
2023-02-17T05:52:12.490Z,32.30
2023-02-17T05:54:40.929Z,36.60
2023-02-17T05:57:09.219Z,34.30
2023-02-17T05:59:39.532Z,33.30
2023-02-17T06:02:07.772Z,34.70
2023-02-17T06:04:37.405Z,36.80
2023-02-17T06:07:10.014Z,37.70
2023-02-17T06:09:38.331Z,38.70
2023-02-17T06:12:07.972Z,32.80
2023-02-17T06:14:36.509Z,41.90
2023-02-17T06:17:06.903Z,37.90
2023-02-17T06:19:35.410Z,36.40
2023-02-17T06:22:04.436Z,34.70
2023-02-17T06:24:32.704Z,43.60
2023-02-17T06:27:02.629Z,40.10
2023-02-17T06:29:31.412Z,34.20
2023-02-17T06:31:59.801Z,38.60
2023-02-17T06:34:28.337Z,45.80
2023-02-17T06:36:56.913Z,37.10
2023-02-17T06:39:25.173Z,41.20
2023-02-17T06:41:53.597Z,40.60
2023-02-17T06:44:22.328Z,42.60
2023-02-17T06:46:50.688Z,41.90
2023-02-17T06:49:20.767Z,42.40
2023-02-17T06:51:49.020Z,40.60
2023-02-17T06:54:17.702Z,45.00
2023-02-17T06:56:46.549Z,40.60
2023-02-17T06:59:15.852Z,39.00
2023-02-17T07:01:44.962Z,36.00
2023-02-17T07:04:14.822Z,42.00
2023-02-17T07:06:42.986Z,43.60
2023-02-17T07:09:13.904Z,32.90
2023-02-17T07:11:45.480Z,44.30
2023-02-17T07:14:13.740Z,46.50
2023-02-17T07:16:42.154Z,45.40
2023-02-17T07:19:10.369Z,39.40
2023-02-17T07:21:38.590Z,38.00
2023-02-17T07:24:07.416Z,45.50
2023-02-17T07:26:40.237Z,34.90
2023-02-17T07:29:09.079Z,42.40
2023-02-17T07:31:37.400Z,43.90
2023-02-17T07:34:05.857Z,50.90
2023-02-17T07:36:36.602Z,39.40
2023-02-17T07:39:05.547Z,41.80
2023-02-17T07:41:33.834Z,42.70
2023-02-17T07:44:10.257Z,43.70
2023-02-17T07:46:40.012Z,43.90
2023-02-17T07:49:08.766Z,46.20
2023-02-17T07:51:36.934Z,46.70
2023-02-17T07:54:06.166Z,32.00
2023-02-17T07:56:34.595Z,37.10
2023-02-17T07:59:03.526Z,44.00
2023-02-17T08:01:31.827Z,41.60
2023-02-17T08:04:01.181Z,40.30
2023-02-17T08:06:29.774Z,45.90
2023-02-17T08:09:17.734Z,43.90
2023-02-17T08:12:05.331Z,44.20
2023-02-17T08:14:34.702Z,42.90
2023-02-17T08:17:03.312Z,45.90
2023-02-17T08:19:47.038Z,42.20
2023-02-17T08:22:17.886Z,38.80
2023-02-17T08:24:46.557Z,57.30
2023-02-17T08:27:16.299Z,40.10
2023-02-17T08:29:46.802Z,42.50
2023-02-17T08:32:16.901Z,37.40
2023-02-17T08:34:45.610Z,39.40
2023-02-17T08:37:15.628Z,33.40
2023-02-17T08:39:47.970Z,43.40
2023-02-17T08:42:20.158Z,41.20
2023-02-17T08:44:55.683Z,35.90
2023-02-17T08:47:23.949Z,40.70
2023-02-17T08:49:52.352Z,42.20
2023-02-17T08:52:20.625Z,42.20
2023-02-17T08:54:51.667Z,37.40
2023-02-17T08:57:24.899Z,37.90
2023-02-17T08:59:54.798Z,37.10
2023-02-17T09:02:23.119Z,40.60
2023-02-17T09:04:51.747Z,38.90
2023-02-17T09:07:20.108Z,40.40
2023-02-17T09:09:48.514Z,42.60
2023-02-17T09:12:16.881Z,45.40
2023-02-17T09:14:46.913Z,41.60
2023-02-17T09:17:15.178Z,35.70
2023-02-17T09:19:43.751Z,41.00
2023-02-17T09:22:30.594Z,43.80
2023-02-17T09:25:01.432Z,35.90
2023-02-17T09:27:30.203Z,37.60
2023-02-17T09:30:02.007Z,33.50
2023-02-17T09:32:30.485Z,32.70
2023-02-17T09:35:04.422Z,30.10
2023-02-17T09:37:32.893Z,35.90
2023-02-17T09:40:01.459Z,34.00
2023-02-17T09:42:33.291Z,28.20
2023-02-17T09:45:13.030Z,30.80
2023-02-17T09:47:47.374Z,31.90
2023-02-17T09:50:27.765Z,30.10
2023-02-17T09:53:05.087Z,29.90
2023-02-17T09:55:39.491Z,29.80
2023-02-17T09:58:21.866Z,24.50
2023-02-17T10:01:02.826Z,26.80
2023-02-17T10:03:33.180Z,39.80
2023-02-17T10:06:16.022Z,26.30
2023-02-17T10:08:51.531Z,28.00
2023-02-17T10:11:36.418Z,33.30
2023-02-17T10:14:20.914Z,29.60
2023-02-17T10:16:54.332Z,27.10
2023-02-17T10:19:30.566Z,30.00
2023-02-17T10:22:17.627Z,26.80
2023-02-17T10:24:46.281Z,26.60
2023-02-17T10:27:23.018Z,25.50
2023-02-17T10:30:06.765Z,27.10
2023-02-17T10:32:45.996Z,26.30
2023-02-17T10:35:22.460Z,27.60
2023-02-17T10:38:00.183Z,27.50
2023-02-17T10:40:29.915Z,32.30
2023-02-17T10:43:07.112Z,27.40
2023-02-17T10:45:51.346Z,25.70
2023-02-17T10:48:55.572Z,25.90
2023-02-17T10:51:32.409Z,23.70
2023-02-17T10:56:40.203Z,24.80
2023-02-17T10:59:20.968Z,26.70
2023-02-17T11:01:51.091Z,23.30
2023-02-17T11:04:19.533Z,25.10
2023-02-17T11:06:55.124Z,25.20
2023-02-17T11:09:32.969Z,21.80
2023-02-17T11:12:26.677Z,23.10
2023-02-17T11:14:56.548Z,26.20
2023-02-17T11:17:41.282Z,26.50
2023-02-17T11:20:30.674Z,22.50
2023-02-17T11:23:27.432Z,25.20
2023-02-17T11:26:18.644Z,25.70
2023-02-17T11:28:47.073Z,25.60
2023-02-17T11:31:30.864Z,28.70
2023-02-17T11:33:59.369Z,24.80
2023-02-17T11:36:32.850Z,23.70
2023-02-17T11:39:17.610Z,23.10
2023-02-17T11:41:45.907Z,24.50
2023-02-17T11:44:24.596Z,25.60
2023-02-17T11:47:04.658Z,21.60
2023-02-17T11:50:06.850Z,20.70
2023-02-17T11:52:55.633Z,23.20
2023-02-17T11:55:36.982Z,19.20
2023-02-17T11:58:37.176Z,17.90
2023-02-17T12:01:11.493Z,19.80
2023-02-17T12:04:11.276Z,18.90
2023-02-17T12:07:17.467Z,20.40
2023-02-17T12:10:14.652Z,19.90
2023-02-17T12:13:07.461Z,23.50
2023-02-17T12:16:07.912Z,22.60
2023-02-17T12:19:01.053Z,22.90
2023-02-17T12:21:47.721Z,25.70
2023-02-17T12:24:45.686Z,21.20
2023-02-17T12:27:32.066Z,24.30
2023-02-17T12:33:02.871Z,24.50
2023-02-17T12:35:53.550Z,25.60
2023-02-17T12:38:26.825Z,28.40
2023-02-17T12:41:21.374Z,24.60
2023-02-17T12:44:02.195Z,27.90
2023-02-17T12:46:50.168Z,28.70
2023-02-17T12:49:27.204Z,25.80
2023-02-17T12:52:06.442Z,20.70
2023-02-17T12:54:42.058Z,25.00
2023-02-17T12:57:10.393Z,22.60
2023-02-17T12:59:41.845Z,24.20
2023-02-17T13:02:18.363Z,26.70
2023-02-17T13:04:52.860Z,22.30
2023-02-17T13:07:52.519Z,25.50
2023-02-17T13:10:30.448Z,32.20
2023-02-17T13:13:12.166Z,27.90
2023-02-17T13:15:46.787Z,27.20
2023-02-17T13:18:24.082Z,25.40
2023-02-17T13:20:56.231Z,19.30
2023-02-17T13:23:41.072Z,17.30
2023-02-17T13:26:18.031Z,18.50
2023-02-17T13:28:46.758Z,19.80
2023-02-17T13:31:26.885Z,18.20
2023-02-17T13:33:59.917Z,19.90
2023-02-17T13:36:28.056Z,21.50
2023-02-17T13:39:01.728Z,22.70
2023-02-17T13:41:44.182Z,20.30
2023-02-17T13:44:39.614Z,20.20
2023-02-17T13:47:20.058Z,18.30
2023-02-17T13:49:59.721Z,21.90
2023-02-17T13:52:30.187Z,18.30
2023-02-17T13:55:01.864Z,17.80
2023-02-17T13:57:36.108Z,19.40
2023-02-17T14:00:24.845Z,21.50
2023-02-17T14:02:56.368Z,27.30
2023-02-17T14:05:33.592Z,26.00
2023-02-17T14:08:13.670Z,19.40
2023-02-17T14:10:42.463Z,22.10
2023-02-17T14:13:13.413Z,19.50
2023-02-17T14:16:00.660Z,21.90
2023-02-17T14:18:31.774Z,17.00
2023-02-17T14:21:02.895Z,17.50
2023-02-17T14:23:51.436Z,17.00
2023-02-17T14:26:47.772Z,18.80
2023-02-17T14:29:16.787Z,17.70
2023-02-17T14:31:53.738Z,29.50
2023-02-17T14:34:31.623Z,18.60
2023-02-17T14:37:17.756Z,21.40
2023-02-17T14:39:47.197Z,22.40
2023-02-17T14:42:15.839Z,22.40
2023-02-17T14:44:45.091Z,25.30
2023-02-17T14:47:13.314Z,22.50
2023-02-17T14:49:42.162Z,21.20
2023-02-17T14:52:21.784Z,25.30
2023-02-17T14:54:50.514Z,21.60
2023-02-17T14:57:27.204Z,23.90
2023-02-17T14:59:57.943Z,23.90
2023-02-17T15:02:26.690Z,29.30
2023-02-17T15:04:55.378Z,30.10
2023-02-17T15:07:25.766Z,35.70
2023-02-17T15:09:55.332Z,36.90
2023-02-17T15:12:26.148Z,33.60
2023-02-17T15:14:56.992Z,34.20
2023-02-17T15:17:25.205Z,35.40
2023-02-17T15:19:53.496Z,34.00
2023-02-17T15:22:21.836Z,34.50
2023-02-17T15:24:50.266Z,28.40
2023-02-17T15:27:19.649Z,31.10
2023-02-17T15:29:49.279Z,33.50
2023-02-17T15:32:24.246Z,33.00
2023-02-17T15:34:52.887Z,31.60
2023-02-17T15:37:21.399Z,34.60
2023-02-17T15:39:49.621Z,36.20
2023-02-17T15:42:20.619Z,31.80
2023-02-17T15:44:50.807Z,40.90
2023-02-17T15:47:20.828Z,38.20
2023-02-17T15:49:49.542Z,37.40
2023-02-17T15:52:17.790Z,33.70
2023-02-17T15:54:49.001Z,35.70
2023-02-17T15:57:26.112Z,38.10
2023-02-17T15:59:55.450Z,37.70
2023-02-17T16:02:25.830Z,38.00
2023-02-17T16:04:54.102Z,35.70
2023-02-17T16:07:23.684Z,36.10
2023-02-17T16:09:52.290Z,39.20
2023-02-17T16:12:27.429Z,43.40
2023-02-17T16:14:57.819Z,40.40
2023-02-17T16:17:28.517Z,41.20
2023-02-17T16:19:59.911Z,41.40
2023-02-17T16:22:30.340Z,45.00
2023-02-17T16:24:58.668Z,43.00
2023-02-17T16:27:27.008Z,41.10
2023-02-17T16:29:55.302Z,39.90
2023-02-17T16:32:23.689Z,38.40
2023-02-17T16:34:52.139Z,38.90
2023-02-17T16:37:20.362Z,41.00
2023-02-17T16:39:49.568Z,37.80
2023-02-17T16:42:17.820Z,47.20
2023-02-17T16:44:46.037Z,55.70
2023-02-17T16:47:21.112Z,42.40
2023-02-17T16:49:51.826Z,45.00
2023-02-17T16:52:25.150Z,52.00
2023-02-17T16:54:53.777Z,50.90
2023-02-17T16:57:22.892Z,51.20
2023-02-17T16:59:51.149Z,59.40
2023-02-17T17:02:21.740Z,52.20
2023-02-17T17:04:50.809Z,45.80
2023-02-17T17:07:19.126Z,44.30
2023-02-17T17:10:06.830Z,46.00
2023-02-17T17:12:35.672Z,46.50
2023-02-17T17:15:04.526Z,49.10
2023-02-17T17:17:40.104Z,56.60
2023-02-17T17:20:14.529Z,60.20
2023-02-17T17:22:43.475Z,48.20
2023-02-17T17:25:11.822Z,48.90
2023-02-17T17:27:42.266Z,51.30
2023-02-17T17:30:17.526Z,55.50
2023-02-17T17:32:45.891Z,51.70
2023-02-17T17:35:15.418Z,58.30
2023-02-17T17:37:45.042Z,53.00
2023-02-17T17:40:18.827Z,54.40
2023-02-17T17:42:54.964Z,55.50
2023-02-17T17:45:25.128Z,67.10
2023-02-17T17:47:54.816Z,63.30
2023-02-17T17:50:25.683Z,62.70
2023-02-17T17:52:53.926Z,63.80
2023-02-17T17:55:23.236Z,58.00
2023-02-17T17:57:53.894Z,58.90
2023-02-17T18:00:24.897Z,63.70
2023-02-17T18:02:55.965Z,71.60
2023-02-17T18:05:24.473Z,58.20
2023-02-17T18:07:53.153Z,60.40
2023-02-17T18:10:21.594Z,64.50
2023-02-17T18:12:49.885Z,64.70
2023-02-17T18:15:19.211Z,56.60
2023-02-17T18:17:49.172Z,63.40
2023-02-17T18:20:20.839Z,61.40
2023-02-17T18:22:49.144Z,61.70
2023-02-17T18:25:19.565Z,64.30
2023-02-17T18:27:48.217Z,55.30
2023-02-17T18:30:23.617Z,59.10
2023-02-17T18:32:53.690Z,68.80
2023-02-17T18:35:22.608Z,65.40
2023-02-17T18:37:51.060Z,71.40
2023-02-17T18:40:21.929Z,71.60
2023-02-17T18:42:50.256Z,74.70
2023-02-17T18:45:18.607Z,77.00
2023-02-17T18:47:46.880Z,73.80
2023-02-17T18:50:17.515Z,80.60
2023-02-17T18:52:45.948Z,85.60
2023-02-17T18:55:14.788Z,81.80
2023-02-17T18:57:44.961Z,75.20
2023-02-17T19:00:15.667Z,83.40
2023-02-17T19:02:44.096Z,86.20
2023-02-17T19:05:13.785Z,80.50
2023-02-17T19:07:41.979Z,74.10
2023-02-17T19:10:12.585Z,110.00
2023-02-17T19:12:41.982Z,83.20
2023-02-17T19:15:11.330Z,74.40
2023-02-17T19:17:40.452Z,97.30
2023-02-17T19:20:10.911Z,90.60
2023-02-17T19:22:39.306Z,93.40
2023-02-17T19:25:08.406Z,89.80
2023-02-17T19:27:40.255Z,84.20
2023-02-17T19:30:11.252Z,78.70
2023-02-17T19:32:39.653Z,90.90
2023-02-17T19:35:11.489Z,86.10
2023-02-17T19:37:43.161Z,80.80
2023-02-17T19:40:11.493Z,85.20
2023-02-17T19:42:40.790Z,94.70
2023-02-17T19:45:09.191Z,101.50
2023-02-17T19:47:38.080Z,103.10
2023-02-17T19:50:07.339Z,89.60
2023-02-17T19:52:37.495Z,96.60
2023-02-17T19:55:07.101Z,102.20
2023-02-17T19:57:37.905Z,105.60
2023-02-17T20:00:07.516Z,97.60
2023-02-17T20:02:36.789Z,89.40
2023-02-17T20:05:05.986Z,87.40
2023-02-17T20:07:34.667Z,71.20
2023-02-17T20:10:05.776Z,72.10
2023-02-17T20:12:34.053Z,68.50
2023-02-17T20:15:02.452Z,72.60
2023-02-17T20:17:30.754Z,71.30
2023-02-17T20:19:59.800Z,68.90
2023-02-17T20:22:28.666Z,73.60
2023-02-17T20:24:56.806Z,68.60
2023-02-17T20:27:25.210Z,71.80
2023-02-17T20:29:53.567Z,70.40
2023-02-17T20:32:26.478Z,76.30
2023-02-17T20:34:54.755Z,72.70
2023-02-17T20:37:23.043Z,73.10
2023-02-17T20:39:51.758Z,77.60
2023-02-17T20:42:20.114Z,79.60
2023-02-17T20:44:50.458Z,77.80
2023-02-17T20:47:20.898Z,81.20
2023-02-17T20:49:49.231Z,87.60
2023-02-17T20:52:17.483Z,82.30
2023-02-17T20:54:48.595Z,73.20
2023-02-17T20:57:18.390Z,66.00
2023-02-17T20:59:47.103Z,62.00
2023-02-17T21:02:15.615Z,67.70
2023-02-17T21:04:43.855Z,58.60
2023-02-17T21:07:12.109Z,68.70
2023-02-17T21:09:40.832Z,72.30
2023-02-17T21:12:09.339Z,72.20
2023-02-17T21:14:37.706Z,73.00
2023-02-17T21:17:05.899Z,70.50
2023-02-17T21:19:35.517Z,65.00
2023-02-17T21:22:04.205Z,66.10
2023-02-17T21:24:33.165Z,78.00
2023-02-17T21:27:02.422Z,72.60
2023-02-17T21:29:30.585Z,77.90
2023-02-17T21:31:59.209Z,75.80
2023-02-17T21:34:27.575Z,87.40
2023-02-17T21:36:55.792Z,93.00
2023-02-17T21:39:23.961Z,115.30
2023-02-17T21:41:52.254Z,109.50
2023-02-17T21:44:39.510Z,87.60
2023-02-17T21:47:08.059Z,80.10
2023-02-17T21:49:36.240Z,74.30
2023-02-17T21:52:05.025Z,66.90
2023-02-17T21:54:33.262Z,62.40
2023-02-17T21:57:04.036Z,55.20
2023-02-17T21:59:32.853Z,53.40
2023-02-17T22:02:01.141Z,56.00
2023-02-17T22:04:30.195Z,54.20
2023-02-17T22:06:58.432Z,54.80
2023-02-17T22:09:26.632Z,54.30
2023-02-17T22:11:55.823Z,54.90
2023-02-17T22:14:24.004Z,58.10
2023-02-17T22:16:53.464Z,63.30
2023-02-17T22:19:24.763Z,54.90
2023-02-17T22:21:53.101Z,51.90
2023-02-17T22:24:21.482Z,51.80
2023-02-17T22:26:51.814Z,50.00
2023-02-17T22:29:21.533Z,52.80
2023-02-17T22:31:55.974Z,44.50
2023-02-17T22:34:26.277Z,47.60
2023-02-17T22:36:54.862Z,44.10
2023-02-17T22:39:23.690Z,50.30
2023-02-17T22:41:51.909Z,50.30
2023-02-17T22:44:20.256Z,46.20
2023-02-17T22:46:48.562Z,41.20
2023-02-17T22:49:16.753Z,45.60
2023-02-17T22:51:45.125Z,39.80
2023-02-17T22:54:13.389Z,40.50
2023-02-17T22:56:41.606Z,41.90
2023-02-17T22:59:09.924Z,44.80
2023-02-17T23:01:38.170Z,39.90
2023-02-17T23:04:06.746Z,35.10
2023-02-17T23:06:37.534Z,36.00
2023-02-17T23:09:08.484Z,36.50
2023-02-17T23:11:51.466Z,35.10
2023-02-17T23:14:25.659Z,31.50
2023-02-17T23:16:56.511Z,28.70
2023-02-17T23:19:26.898Z,32.90
2023-02-17T23:21:57.930Z,30.60
2023-02-17T23:24:28.242Z,25.10
2023-02-17T23:27:00.069Z,33.70
2023-02-17T23:29:30.842Z,29.80
2023-02-17T23:31:59.771Z,33.00
2023-02-17T23:34:28.817Z,28.30
2023-02-17T23:36:57.591Z,26.00
2023-02-17T23:39:25.976Z,31.90
2023-02-17T23:41:55.750Z,31.00
2023-02-17T23:44:23.959Z,32.80
2023-02-17T23:46:52.123Z,33.10
2023-02-17T23:49:20.303Z,34.00
2023-02-17T23:51:49.973Z,28.30
2023-02-17T23:54:18.663Z,34.00
2023-02-17T23:56:46.883Z,27.00
2023-02-17T23:59:15.039Z,24.60
